QLK2131 YSCB-YMML

Flight info

Callsign QLK2131
Flight time 1h 5m
Altitude 24000
Route CB Q215 TANTA Q29 ML
Aircraft DH8D/M-SDE2E3FGRY/H

Departure

Time 2026-05-04 08:08
Airport Canberra Airport (YSCB)

Arrival

Time 2026-05-04 09:14
Airport Melbourne Airport (YMML)
Time Latitude Longitude Altitude Speed Heading
2026-05-04 07:43 -35.30556 149.18911 1894 ft 0 kts 264°
2026-05-04 07:45 -35.30556 149.18910 1894 ft 0 kts 264°
2026-05-04 08:02 -35.30556 149.18912 1894 ft 0 kts 264°
2026-05-04 08:02 -35.30562 149.18906 1894 ft 2 kts 198°
2026-05-04 08:02 -35.30567 149.18917 1894 ft 0 kts 95°
2026-05-04 08:03 -35.30557 149.18949 1894 ft 9 kts 66°
2026-05-04 08:03 -35.30548 149.19032 1894 ft 13 kts 130°
2026-05-04 08:03 -35.30611 149.19123 1894 ft 14 kts 130°
2026-05-04 08:03 -35.30678 149.19216 1894 ft 15 kts 142°
2026-05-04 08:04 -35.30757 149.19238 1894 ft 7 kts 182°
2026-05-04 08:04 -35.30777 149.19238 1894 ft 0 kts 181°
2026-05-04 08:05 -35.30776 149.19238 1894 ft 0 kts 181°
2026-05-04 08:05 -35.30775 149.19238 1894 ft 0 kts 181°
2026-05-04 08:05 -35.30786 149.19237 1894 ft 6 kts 181°
2026-05-04 08:06 -35.30866 149.19238 1894 ft 17 kts 179°
2026-05-04 08:06 -35.31001 149.19239 1894 ft 20 kts 183°
2026-05-04 08:06 -35.31148 149.19238 1894 ft 21 kts 181°
2026-05-04 08:06 -35.31293 149.19239 1894 ft 21 kts 181°
2026-05-04 08:08 -35.28916 149.18907 2839 ft 131 kts 320°
2026-05-04 08:08 -35.28247 149.18090 3507 ft 132 kts 312°
2026-05-04 08:10 -35.24573 149.09322 7870 ft 232 kts 229°
2026-05-04 08:11 -35.25840 149.08083 8290 ft 233 kts 221°
2026-05-04 08:11 -35.28489 149.05802 8959 ft 234 kts 221°
2026-05-04 08:11 -35.29827 149.04646 9258 ft 236 kts 221°
2026-05-04 08:12 -35.31168 149.03486 9558 ft 237 kts 221°
2026-05-04 08:12 -35.32505 149.02332 9852 ft 238 kts 222°
2026-05-04 08:12 -35.33865 149.01160 10140 ft 239 kts 222°
2026-05-04 08:12 -35.35231 148.99980 10435 ft 240 kts 223°
2026-05-04 08:13 -35.36603 148.98797 10734 ft 241 kts 223°
2026-05-04 08:13 -35.37979 148.97607 11023 ft 243 kts 223°
2026-05-04 08:13 -35.39367 148.96408 11366 ft 244 kts 224°
2026-05-04 08:13 -35.40748 148.95217 11697 ft 245 kts 224°
2026-05-04 08:14 -35.42125 148.94028 12026 ft 246 kts 224°
2026-05-04 08:14 -35.43512 148.92826 12350 ft 247 kts 225°
2026-05-04 08:14 -35.44885 148.91628 12665 ft 248 kts 225°
2026-05-04 08:16 -35.54687 148.83000 14747 ft 255 kts 226°
2026-05-04 08:16 -35.56110 148.81738 15020 ft 257 kts 226°
2026-05-04 08:16 -35.57513 148.80495 15283 ft 258 kts 226°
2026-05-04 08:17 -35.58922 148.79247 15541 ft 259 kts 226°
2026-05-04 08:17 -35.60340 148.77992 15804 ft 259 kts 227°
2026-05-04 08:17 -35.61784 148.76709 16066 ft 260 kts 227°
2026-05-04 08:17 -35.63221 148.75434 16309 ft 261 kts 227°
2026-05-04 08:19 -35.73280 148.66482 17922 ft 265 kts 228°
2026-05-04 08:19 -35.74734 148.65187 18128 ft 266 kts 228°
2026-05-04 08:20 -35.76184 148.63888 18326 ft 267 kts 228°
2026-05-04 08:20 -35.77644 148.62574 18518 ft 268 kts 228°
2026-05-04 08:20 -35.79136 148.61230 18695 ft 270 kts 228°
2026-05-04 08:20 -35.80655 148.59859 18725 ft 280 kts 228°
2026-05-04 08:21 -35.82217 148.58428 18725 ft 290 kts 227°
2026-05-04 08:21 -35.83814 148.56971 18967 ft 289 kts 227°
2026-05-04 08:21 -35.85411 148.55548 19311 ft 285 kts 227°
2026-05-04 08:21 -35.86995 148.54146 19596 ft 280 kts 229°
2026-05-04 08:22 -35.88406 148.52571 19865 ft 265 kts 240°
2026-05-04 08:22 -35.89507 148.50800 20141 ft 259 kts 247°
2026-05-04 08:24 -35.96526 148.38129 22038 ft 275 kts 248°
2026-05-04 08:24 -35.97619 148.36163 22316 ft 283 kts 247°
2026-05-04 08:24 -35.98726 148.34186 22588 ft 290 kts 247°
2026-05-04 08:24 -35.99868 148.32149 22861 ft 295 kts 246°
2026-05-04 08:25 -36.01035 148.30073 23161 ft 299 kts 246°
2026-05-04 08:25 -36.02207 148.27999 23481 ft 301 kts 246°
2026-05-04 08:25 -36.03398 148.25902 23793 ft 302 kts 246°
2026-05-04 08:25 -36.04573 148.23831 23921 ft 299 kts 247°
2026-05-04 08:26 -36.05740 148.21759 23983 ft 300 kts 247°
2026-05-04 08:27 -36.14016 148.06885 24033 ft 316 kts 246°
2026-05-04 08:28 -36.15220 148.04736 24032 ft 318 kts 246°
2026-05-04 08:28 -36.16441 148.02555 24031 ft 319 kts 246°
2026-05-04 08:28 -36.17658 148.00379 24031 ft 320 kts 246°
2026-05-04 08:28 -36.18881 147.98192 24030 ft 321 kts 246°
2026-05-04 08:29 -36.20073 147.96058 24029 ft 322 kts 246°
2026-05-04 08:29 -36.21288 147.93880 24028 ft 323 kts 246°
2026-05-04 08:29 -36.22529 147.91654 24028 ft 323 kts 246°
2026-05-04 08:31 -36.31189 147.76067 24021 ft 326 kts 246°
2026-05-04 08:33 -36.39780 147.60500 24014 ft 327 kts 246°
2026-05-04 08:33 -36.41033 147.58224 24013 ft 327 kts 246°
2026-05-04 08:35 -36.49782 147.42294 23997 ft 329 kts 246°
2026-05-04 08:35 -36.50933 147.40194 23994 ft 329 kts 246°
2026-05-04 08:35 -36.52142 147.37985 23992 ft 329 kts 246°
2026-05-04 08:35 -36.53362 147.35755 23990 ft 329 kts 246°
2026-05-04 08:37 -36.60607 147.22478 23982 ft 329 kts 246°
2026-05-04 08:37 -36.61828 147.20238 23981 ft 329 kts 246°
2026-05-04 08:37 -36.63039 147.18013 23980 ft 329 kts 246°
2026-05-04 08:38 -36.64243 147.15799 23977 ft 329 kts 246°
2026-05-04 08:38 -36.65480 147.13518 23975 ft 329 kts 246°
2026-05-04 08:38 -36.66707 147.11249 23974 ft 329 kts 246°
2026-05-04 08:40 -36.75379 146.95227 23965 ft 330 kts 246°
2026-05-04 08:40 -36.76633 146.92901 23963 ft 330 kts 246°
2026-05-04 08:40 -36.77461 146.91365 23962 ft 330 kts 246°
2026-05-04 08:41 -36.79123 146.88283 23961 ft 329 kts 246°
2026-05-04 08:41 -36.80337 146.86023 23960 ft 329 kts 246°
2026-05-04 08:41 -36.81583 146.83704 23958 ft 330 kts 246°
2026-05-04 08:41 -36.82400 146.82188 23958 ft 330 kts 246°
2026-05-04 08:42 -36.84055 146.79121 23971 ft 329 kts 246°
2026-05-04 08:42 -36.84913 146.77529 23974 ft 329 kts 246°
2026-05-04 08:42 -36.86164 146.75204 23976 ft 329 kts 246°
2026-05-04 08:42 -36.87415 146.72875 23976 ft 329 kts 246°
2026-05-04 08:43 -36.88646 146.70580 23976 ft 329 kts 246°
2026-05-04 08:43 -36.89865 146.68306 23975 ft 329 kts 246°
2026-05-04 08:43 -36.91102 146.65995 23974 ft 329 kts 246°
2026-05-04 08:43 -36.92320 146.63720 23973 ft 329 kts 246°
2026-05-04 08:44 -36.93561 146.61400 23972 ft 329 kts 246°
2026-05-04 08:44 -36.94821 146.59043 23971 ft 329 kts 246°
2026-05-04 08:46 -37.02460 146.42024 23964 ft 322 kts 255°
2026-05-04 08:46 -37.03391 146.39533 23963 ft 322 kts 255°
2026-05-04 08:46 -37.04329 146.37026 23962 ft 323 kts 255°
2026-05-04 08:46 -37.05266 146.34520 23962 ft 323 kts 255°
2026-05-04 08:47 -37.06202 146.32016 23961 ft 323 kts 255°
2026-05-04 08:47 -37.07138 146.29507 23960 ft 323 kts 255°
2026-05-04 08:47 -37.08065 146.27023 23959 ft 323 kts 255°
2026-05-04 08:47 -37.08974 146.24585 23959 ft 323 kts 255°
2026-05-04 08:48 -37.09905 146.22085 23958 ft 323 kts 255°
2026-05-04 08:48 -37.10832 146.19592 23957 ft 323 kts 255°
2026-05-04 08:48 -37.11766 146.17067 23956 ft 323 kts 255°
2026-05-04 08:48 -37.12699 146.14549 23656 ft 324 kts 255°
2026-05-04 08:49 -37.13619 146.12083 23197 ft 316 kts 255°
2026-05-04 08:50 -37.18814 145.98042 20408 ft 293 kts 255°
2026-05-04 08:50 -37.19632 145.95800 19945 ft 290 kts 255°
2026-05-04 08:51 -37.20458 145.93543 19474 ft 287 kts 255°
2026-05-04 08:51 -37.21276 145.91311 19003 ft 284 kts 255°
2026-05-04 08:51 -37.22072 145.89135 18541 ft 282 kts 254°
2026-05-04 08:51 -37.22865 145.86962 18076 ft 280 kts 254°
2026-05-04 08:52 -37.23656 145.84803 17610 ft 278 kts 254°
2026-05-04 08:52 -37.24442 145.82659 17143 ft 276 kts 254°
2026-05-04 08:52 -37.25234 145.80510 16672 ft 274 kts 254°
2026-05-04 08:52 -37.26014 145.78387 16205 ft 272 kts 253°
2026-05-04 08:53 -37.26783 145.76292 15741 ft 271 kts 253°
2026-05-04 08:54 -37.32795 145.62438 12530 ft 271 kts 241°
2026-05-04 08:55 -37.33887 145.60582 12065 ft 270 kts 241°
2026-05-04 08:55 -37.34975 145.58726 11599 ft 269 kts 241°
2026-05-04 08:55 -37.35990 145.56992 11162 ft 269 kts 241°
2026-05-04 08:55 -37.37071 145.55136 10695 ft 268 kts 241°
2026-05-04 08:57 -37.44182 145.42895 9009 ft 227 kts 242°
2026-05-04 09:01 -37.60604 145.24160 6952 ft 229 kts 230°
2026-05-04 09:01 -37.61761 145.22853 6711 ft 232 kts 230°
2026-05-04 09:01 -37.62948 145.21525 6464 ft 233 kts 229°
2026-05-04 09:01 -37.64147 145.20185 6220 ft 233 kts 229°
2026-05-04 09:02 -37.65347 145.18848 6092 ft 227 kts 229°
2026-05-04 09:02 -37.66470 145.17608 6023 ft 222 kts 229°
2026-05-04 09:02 -37.67638 145.16316 5784 ft 224 kts 229°
2026-05-04 09:02 -37.68790 145.15026 5538 ft 225 kts 229°
2026-05-04 09:03 -37.69961 145.13707 5313 ft 226 kts 229°
2026-05-04 09:03 -37.71083 145.12446 5095 ft 224 kts 229°
2026-05-04 09:03 -37.72239 145.11150 4868 ft 221 kts 229°
2026-05-04 09:03 -37.73352 145.09903 4680 ft 216 kts 229°
2026-05-04 09:04 -37.74444 145.08681 4533 ft 213 kts 229°
2026-05-04 09:04 -37.75544 145.07446 4385 ft 213 kts 229°
2026-05-04 09:04 -37.76655 145.06196 4236 ft 214 kts 228°
2026-05-04 09:04 -37.77764 145.04946 4107 ft 214 kts 228°
2026-05-04 09:05 -37.78882 145.03692 4042 ft 214 kts 228°
2026-05-04 09:05 -37.79993 145.02438 4004 ft 212 kts 229°
2026-05-04 09:05 -37.80894 145.01029 3989 ft 200 kts 248°
2026-05-04 09:05 -37.81422 144.99418 3932 ft 197 kts 259°
2026-05-04 09:06 -37.81802 144.97766 3822 ft 188 kts 261°
2026-05-04 09:07 -37.83387 144.87601 2480 ft 149 kts 268°
2026-05-04 09:08 -37.83176 144.86363 2466 ft 140 kts 307°
2026-05-04 09:08 -37.82362 144.85721 2477 ft 139 kts 341°
2026-05-04 09:08 -37.81382 144.85665 2447 ft 148 kts 359°
2026-05-04 09:08 -37.80301 144.85872 2416 ft 158 kts
2026-05-04 09:09 -37.79167 144.86004 2355 ft 166 kts 355°
2026-05-04 09:09 -37.77937 144.85975 1860 ft 192 kts 352°
2026-05-04 09:09 -37.76618 144.85797 1710 ft 184 kts 347°
2026-05-04 09:09 -37.75454 144.85497 1543 ft 158 kts 345°
2026-05-04 09:10 -37.74505 144.85222 1515 ft 125 kts 347°
2026-05-04 09:10 -37.73660 144.85009 1344 ft 122 kts 352°
2026-05-04 09:10 -37.72811 144.84858 1236 ft 123 kts 353°
2026-05-04 09:10 -37.71954 144.84711 1155 ft 127 kts 353°
2026-05-04 09:11 -37.71087 144.84543 1055 ft 130 kts 352°
2026-05-04 09:11 -37.70187 144.84377 875 ft 128 kts 353°
2026-05-04 09:11 -37.69314 144.84223 669 ft 130 kts 353°
2026-05-04 09:11 -37.68391 144.84060 495 ft 137 kts 353°
2026-05-04 09:12 -37.67519 144.83905 442 ft 106 kts 352°
2026-05-04 09:12 -37.66932 144.83793 442 ft 68 kts 351°
2026-05-04 09:14 -37.66513 144.83918 442 ft 9 kts 94°
2026-05-04 09:14 -37.66517 144.83993 442 ft 7 kts 94°
2026-05-04 09:14 -37.66523 144.84061 442 ft 9 kts 103°
2026-05-04 09:14 -37.66568 144.84137 442 ft 12 kts 146°
2026-05-04 09:15 -37.66647 144.84165 442 ft 7 kts 168°
2026-05-04 09:15 -37.66692 144.84207 442 ft 10 kts 116°
2026-05-04 09:15 -37.66689 144.84308 442 ft 13 kts 80°
2026-05-04 09:15 -37.66675 144.84437 442 ft 16 kts 81°
2026-05-04 09:17 -37.66720 144.84910 442 ft 0 kts 83°